N45XS LIRZ-LHBP
Flight info
| Callsign | N45XS |
|---|---|
| Flight time | N/A |
| Altitude | 8000 |
| Route | KATAR5E KATAR DCT GOTMO DCT IBENI DCT IPKIS DCT VEBAL DCT ULZAK ULZAK2H |
| Aircraft | B58/L-SGYFDR/S |
Departure
| Time | 2026-04-27 18:03 |
|---|---|
| Airport | Perugia San Francesco d'Assisi – Umbria International Airport (LIRZ) |
Arrival
| Time | N/A |
|---|---|
| Airport | Budapest Liszt Ferenc International Airport (LHBP) |
| Time | Latitude | Longitude | Altitude | Speed | Heading |
|---|---|---|---|---|---|
| 2026-04-27 17:59 | 43.09716 | 12.50304 | 688 ft | 0 kts | 164° |
| 2026-04-27 18:00 | 43.09711 | 12.50307 | 688 ft | 2 kts | 148° |
| 2026-04-27 18:00 | 43.09697 | 12.50339 | 688 ft | 5 kts | 129° |
| 2026-04-27 18:00 | 43.09653 | 12.50367 | 688 ft | 8 kts | 157° |
| 2026-04-27 18:00 | 43.09597 | 12.50418 | 688 ft | 10 kts | 158° |
| 2026-04-27 18:01 | 43.09519 | 12.50456 | 688 ft | 12 kts | 164° |
| 2026-04-27 18:01 | 43.09428 | 12.50503 | 688 ft | 14 kts | 156° |
| 2026-04-27 18:01 | 43.09333 | 12.50575 | 687 ft | 16 kts | 147° |
| 2026-04-27 18:01 | 43.09226 | 12.50667 | 685 ft | 18 kts | 148° |
| 2026-04-27 18:02 | 43.09121 | 12.50770 | 684 ft | 19 kts | 134° |
| 2026-04-27 18:02 | 43.09050 | 12.50935 | 682 ft | 21 kts | 105° |
| 2026-04-27 18:02 | 43.09028 | 12.51098 | 682 ft | 15 kts | 63° |
| 2026-04-27 18:02 | 43.09200 | 12.51187 | 683 ft | 52 kts | 14° |
| 2026-04-27 18:03 | 43.09758 | 12.51377 | 750 ft | 98 kts | 12° |
| 2026-04-27 18:03 | 43.10439 | 12.51611 | 1100 ft | 102 kts | 13° |
| 2026-04-27 18:03 | 43.11153 | 12.51858 | 1415 ft | 113 kts | 12° |
| 2026-04-27 18:03 | 43.11974 | 12.52169 | 1626 ft | 127 kts | 12° |
| 2026-04-27 18:04 | 43.12851 | 12.52470 | 1905 ft | 132 kts | 13° |
| 2026-04-27 18:04 | 43.13759 | 12.52729 | 2181 ft | 135 kts | 358° |
| 2026-04-27 18:04 | 43.14605 | 12.52261 | 2446 ft | 135 kts | 314° |
| 2026-04-27 18:04 | 43.14963 | 12.51113 | 2719 ft | 134 kts | 269° |
| 2026-04-27 18:05 | 43.14742 | 12.49888 | 2999 ft | 134 kts | 250° |
| 2026-04-27 18:05 | 43.14457 | 12.48680 | 3292 ft | 134 kts | 253° |
| 2026-04-27 18:05 | 43.14201 | 12.47463 | 3587 ft | 134 kts | 255° |
| 2026-04-27 18:05 | 43.13957 | 12.46237 | 3883 ft | 134 kts | 256° |
| 2026-04-27 18:06 | 43.13720 | 12.45000 | 4185 ft | 135 kts | 257° |
| 2026-04-27 18:06 | 43.13484 | 12.43749 | 4490 ft | 137 kts | 257° |
| 2026-04-27 18:06 | 43.13247 | 12.42484 | 4793 ft | 139 kts | 257° |
| 2026-04-27 18:06 | 43.13007 | 12.41199 | 5100 ft | 140 kts | 257° |
| 2026-04-27 18:07 | 43.12762 | 12.39893 | 5407 ft | 141 kts | 258° |
| 2026-04-27 18:07 | 43.12520 | 12.38597 | 5713 ft | 142 kts | 257° |
| 2026-04-27 18:07 | 43.12276 | 12.37293 | 6017 ft | 143 kts | 257° |
| 2026-04-27 18:07 | 43.12029 | 12.35971 | 6327 ft | 143 kts | 257° |
| 2026-04-27 18:08 | 43.11774 | 12.34672 | 6631 ft | 143 kts | 257° |
| 2026-04-27 18:08 | 43.11839 | 12.33341 | 6935 ft | 140 kts | 286° |
| 2026-04-27 18:08 | 43.12062 | 12.32048 | 7229 ft | 141 kts | 284° |
| 2026-04-27 18:08 | 43.12241 | 12.30745 | 7521 ft | 141 kts | 281° |
| 2026-04-27 18:09 | 43.12398 | 12.29420 | 7818 ft | 140 kts | 281° |
| 2026-04-27 18:09 | 43.12542 | 12.28100 | 8111 ft | 140 kts | 280° |
| 2026-04-27 18:09 | 43.12691 | 12.26695 | 8084 ft | 161 kts | 280° |
| 2026-04-27 18:09 | 43.12672 | 12.25106 | 8067 ft | 176 kts | 251° |
| 2026-04-27 18:10 | 43.11867 | 12.23857 | 8101 ft | 181 kts | 206° |
| 2026-04-27 18:10 | 43.10627 | 12.23687 | 8112 ft | 183 kts | 162° |
| 2026-04-27 18:10 | 43.09646 | 12.24727 | 8114 ft | 182 kts | 118° |
| 2026-04-27 18:10 | 43.09237 | 12.26350 | 8119 ft | 182 kts | 108° |
| 2026-04-27 18:11 | 43.08759 | 12.27956 | 8112 ft | 184 kts | 114° |
| 2026-04-27 18:11 | 43.08177 | 12.29524 | 8113 ft | 185 kts | 117° |
| 2026-04-27 18:11 | 43.07549 | 12.31089 | 8116 ft | 187 kts | 118° |
| 2026-04-27 18:11 | 43.06907 | 12.32642 | 8119 ft | 188 kts | 118° |
| 2026-04-27 18:12 | 43.06257 | 12.34195 | 8118 ft | 189 kts | 118° |
| 2026-04-27 18:12 | 43.05605 | 12.35751 | 8117 ft | 190 kts | 118° |
| 2026-04-27 18:12 | 43.05104 | 12.37401 | 8112 ft | 189 kts | 97° |
| 2026-04-27 18:12 | 43.05049 | 12.39197 | 8116 ft | 189 kts | 89° |
| 2026-04-27 18:13 | 43.05059 | 12.40995 | 8114 ft | 189 kts | 89° |
| 2026-04-27 18:13 | 43.05069 | 12.42801 | 8116 ft | 190 kts | 89° |
| 2026-04-27 18:13 | 43.05078 | 12.44607 | 8117 ft | 191 kts | 89° |
| 2026-04-27 18:13 | 43.05087 | 12.46422 | 8115 ft | 193 kts | 88° |
| 2026-04-27 18:14 | 43.05095 | 12.48254 | 8120 ft | 192 kts | 88° |
| 2026-04-27 18:14 | 43.05103 | 12.50059 | 8123 ft | 188 kts | 89° |
| 2026-04-27 18:14 | 43.05111 | 12.51823 | 8119 ft | 182 kts | 88° |
| 2026-04-27 18:14 | 43.05118 | 12.53509 | 8119 ft | 177 kts | 88° |
| 2026-04-27 18:15 | 43.05124 | 12.55193 | 8122 ft | 174 kts | 88° |
| 2026-04-27 18:15 | 43.05130 | 12.56840 | 8122 ft | 173 kts | 88° |
| 2026-04-27 18:15 | 43.05136 | 12.58478 | 8119 ft | 172 kts | 88° |
| 2026-04-27 18:15 | 43.05142 | 12.60092 | 8120 ft | 170 kts | 88° |
| 2026-04-27 18:16 | 43.05148 | 12.61702 | 8125 ft | 168 kts | 88° |
| 2026-04-27 18:16 | 43.05153 | 12.63283 | 8125 ft | 166 kts | 88° |
| 2026-04-27 18:16 | 43.05158 | 12.64846 | 8121 ft | 165 kts | 88° |
| 2026-04-27 18:16 | 43.05163 | 12.66409 | 8126 ft | 164 kts | 89° |
| 2026-04-27 18:17 | 43.05403 | 12.67890 | 8125 ft | 159 kts | 58° |
| 2026-04-27 18:17 | 43.06085 | 12.69074 | 8128 ft | 158 kts | 48° |
| 2026-04-27 18:17 | 43.06829 | 12.70191 | 8129 ft | 158 kts | 47° |
| 2026-04-27 18:17 | 43.07580 | 12.71302 | 8129 ft | 158 kts | 47° |
| 2026-04-27 18:18 | 43.08329 | 12.72403 | 8129 ft | 158 kts | 46° |
| 2026-04-27 18:18 | 43.09072 | 12.73494 | 8132 ft | 158 kts | 47° |
| 2026-04-27 18:18 | 43.09829 | 12.74609 | 8132 ft | 160 kts | 46° |
| 2026-04-27 18:18 | 43.10585 | 12.75721 | 8132 ft | 161 kts | 46° |
| 2026-04-27 18:19 | 43.11356 | 12.76850 | 8128 ft | 161 kts | 46° |
| 2026-04-27 18:19 | 43.12113 | 12.77961 | 8127 ft | 161 kts | 46° |
| 2026-04-27 18:19 | 43.12877 | 12.79082 | 8129 ft | 160 kts | 46° |
| 2026-04-27 18:19 | 43.13641 | 12.80205 | 8130 ft | 160 kts | 47° |
| 2026-04-27 18:20 | 43.14400 | 12.81323 | 8131 ft | 160 kts | 46° |
| 2026-04-27 18:20 | 43.15159 | 12.82438 | 8133 ft | 161 kts | 46° |
| 2026-04-27 18:20 | 43.15921 | 12.83560 | 8132 ft | 161 kts | 46° |
| 2026-04-27 18:20 | 43.16686 | 12.84687 | 8131 ft | 161 kts | 46° |
| 2026-04-27 18:21 | 43.17450 | 12.85812 | 8129 ft | 160 kts | 46° |
| 2026-04-27 18:21 | 43.18207 | 12.86927 | 8131 ft | 160 kts | 46° |
| 2026-04-27 18:21 | 43.18966 | 12.88045 | 8130 ft | 160 kts | 46° |
| 2026-04-27 18:21 | 43.19724 | 12.89163 | 8134 ft | 160 kts | 46° |
| 2026-04-27 18:22 | 43.20488 | 12.90290 | 8130 ft | 161 kts | 46° |
| 2026-04-27 18:22 | 43.21292 | 12.91351 | 8127 ft | 160 kts | 41° |
| 2026-04-27 18:22 | 43.22123 | 12.92376 | 8121 ft | 157 kts | 44° |
| 2026-04-27 18:22 | 43.22921 | 12.93379 | 8127 ft | 159 kts | 41° |
| 2026-04-27 18:23 | 43.23775 | 12.94424 | 8125 ft | 169 kts | 41° |
| 2026-04-27 18:23 | 43.24672 | 12.95528 | 8120 ft | 176 kts | 41° |
| 2026-04-27 18:23 | 43.25588 | 12.96659 | 8117 ft | 180 kts | 41° |
| 2026-04-27 18:23 | 43.26526 | 12.97819 | 8111 ft | 182 kts | 41° |
| 2026-04-27 18:24 | 43.27470 | 12.98987 | 8118 ft | 183 kts | 41° |
| 2026-04-27 18:24 | 43.28410 | 13.00152 | 8117 ft | 184 kts | 41° |
| 2026-04-27 18:24 | 43.29373 | 13.01345 | 8116 ft | 185 kts | 41° |
| 2026-04-27 18:24 | 43.30323 | 13.02523 | 8112 ft | 185 kts | 41° |
| 2026-04-27 18:25 | 43.31283 | 13.03713 | 8117 ft | 185 kts | 41° |
| 2026-04-27 18:25 | 43.32236 | 13.04897 | 8113 ft | 186 kts | 41° |
| 2026-04-27 18:25 | 43.33187 | 13.06077 | 8114 ft | 186 kts | 41° |
| 2026-04-27 18:25 | 43.34155 | 13.07279 | 8110 ft | 187 kts | 41° |
| 2026-04-27 18:26 | 43.35123 | 13.08483 | 8104 ft | 187 kts | 41° |
| 2026-04-27 18:26 | 43.36086 | 13.09680 | 8099 ft | 187 kts | 41° |
| 2026-04-27 18:26 | 43.37049 | 13.10879 | 8105 ft | 186 kts | 41° |
| 2026-04-27 18:26 | 43.38001 | 13.12064 | 8102 ft | 186 kts | 41° |
| 2026-04-27 18:27 | 43.38960 | 13.13258 | 8097 ft | 186 kts | 41° |
| 2026-04-27 18:27 | 43.39924 | 13.14459 | 8104 ft | 186 kts | 41° |
| 2026-04-27 18:27 | 43.40886 | 13.15657 | 8103 ft | 186 kts | 41° |
| 2026-04-27 18:27 | 43.41856 | 13.16867 | 8101 ft | 186 kts | 41° |
| 2026-04-27 18:28 | 43.42810 | 13.18057 | 8098 ft | 187 kts | 41° |
| 2026-04-27 18:28 | 43.43776 | 13.19261 | 8089 ft | 186 kts | 41° |
| 2026-04-27 18:28 | 43.44741 | 13.20465 | 8096 ft | 186 kts | 41° |
| 2026-04-27 18:28 | 43.45692 | 13.21653 | 8098 ft | 186 kts | 41° |
| 2026-04-27 18:29 | 43.46655 | 13.22857 | 8093 ft | 187 kts | 41° |
| 2026-04-27 18:29 | 43.47619 | 13.24061 | 8082 ft | 187 kts | 41° |
| 2026-04-27 18:29 | 43.48578 | 13.25260 | 8086 ft | 186 kts | 41° |
| 2026-04-27 18:29 | 43.49541 | 13.26465 | 8086 ft | 186 kts | 41° |
| 2026-04-27 18:30 | 43.50489 | 13.27652 | 8085 ft | 186 kts | 41° |
| 2026-04-27 18:30 | 43.51446 | 13.28850 | 8087 ft | 186 kts | 41° |
| 2026-04-27 18:30 | 43.52411 | 13.30059 | 8085 ft | 186 kts | 41° |
| 2026-04-27 18:30 | 43.53371 | 13.31262 | 8082 ft | 186 kts | 41° |
| 2026-04-27 18:31 | 43.54330 | 13.32464 | 8081 ft | 186 kts | 41° |
| 2026-04-27 18:31 | 43.55278 | 13.33653 | 8084 ft | 186 kts | 40° |
| 2026-04-27 18:31 | 43.56232 | 13.34850 | 8082 ft | 185 kts | 41° |
| 2026-04-27 18:31 | 43.57194 | 13.36058 | 8081 ft | 186 kts | 41° |
| 2026-04-27 18:32 | 43.58140 | 13.37246 | 8080 ft | 186 kts | 41° |
| 2026-04-27 18:32 | 43.59104 | 13.38457 | 8080 ft | 185 kts | 41° |
| 2026-04-27 18:32 | 43.60049 | 13.39645 | 8080 ft | 185 kts | 41° |
| 2026-04-27 18:32 | 43.61001 | 13.40844 | 8080 ft | 186 kts | 41° |
| 2026-04-27 18:33 | 43.61964 | 13.42054 | 8078 ft | 186 kts | 41° |
| 2026-04-27 18:33 | 43.62917 | 13.43255 | 8076 ft | 186 kts | 41° |
| 2026-04-27 18:33 | 43.63870 | 13.44455 | 8078 ft | 186 kts | 40° |
| 2026-04-27 18:33 | 43.64831 | 13.45666 | 8078 ft | 186 kts | 40° |
| 2026-04-27 18:34 | 43.65788 | 13.46872 | 8084 ft | 186 kts | 40° |
| 2026-04-27 18:34 | 43.66738 | 13.48070 | 8082 ft | 186 kts | 40° |
| 2026-04-27 18:34 | 43.67691 | 13.49273 | 8084 ft | 187 kts | 40° |
| 2026-04-27 18:34 | 43.68655 | 13.50489 | 8079 ft | 187 kts | 40° |
| 2026-04-27 18:35 | 43.69609 | 13.51694 | 8080 ft | 187 kts | 40° |
| 2026-04-27 18:35 | 43.70577 | 13.52916 | 8078 ft | 187 kts | 40° |
| 2026-04-27 18:35 | 43.71536 | 13.54127 | 8075 ft | 187 kts | 40° |
| 2026-04-27 18:35 | 43.72492 | 13.55336 | 8076 ft | 186 kts | 40° |
| 2026-04-27 18:36 | 43.73444 | 13.56541 | 8075 ft | 186 kts | 41° |
| 2026-04-27 18:36 | 43.74395 | 13.57745 | 8074 ft | 186 kts | 41° |
| 2026-04-27 18:36 | 43.75353 | 13.58958 | 8072 ft | 186 kts | 40° |
| 2026-04-27 18:36 | 43.76306 | 13.60167 | 8073 ft | 186 kts | 40° |
| 2026-04-27 18:37 | 43.77258 | 13.61373 | 8075 ft | 185 kts | 40° |
| 2026-04-27 18:37 | 43.78216 | 13.62588 | 8078 ft | 186 kts | 40° |
| 2026-04-27 18:37 | 43.79167 | 13.63794 | 8077 ft | 186 kts | 40° |
| 2026-04-27 18:37 | 43.80114 | 13.64996 | 8078 ft | 186 kts | 40° |
| 2026-04-27 18:38 | 43.81071 | 13.66211 | 8075 ft | 186 kts | 41° |
| 2026-04-27 18:38 | 43.82017 | 13.67413 | 8072 ft | 186 kts | 41° |
| 2026-04-27 18:38 | 43.82981 | 13.68636 | 8072 ft | 186 kts | 41° |
| 2026-04-27 18:38 | 43.83926 | 13.69838 | 8071 ft | 185 kts | 41° |
| 2026-04-27 18:39 | 43.84872 | 13.71042 | 8073 ft | 185 kts | 41° |
| 2026-04-27 18:39 | 43.85828 | 13.72259 | 8074 ft | 185 kts | 41° |
| 2026-04-27 18:39 | 43.86776 | 13.73466 | 8077 ft | 185 kts | 41° |
| 2026-04-27 18:39 | 43.87725 | 13.74675 | 8076 ft | 185 kts | 41° |
| 2026-04-27 18:40 | 43.88671 | 13.75880 | 8074 ft | 185 kts | 41° |
| 2026-04-27 18:40 | 43.89621 | 13.77092 | 8074 ft | 185 kts | 41° |
| 2026-04-27 18:40 | 43.90562 | 13.78292 | 8075 ft | 185 kts | 41° |
| 2026-04-27 18:40 | 43.91510 | 13.79501 | 8072 ft | 185 kts | 41° |
| 2026-04-27 18:41 | 43.92461 | 13.80715 | 8073 ft | 185 kts | 41° |
| 2026-04-27 18:41 | 43.93404 | 13.81920 | 8075 ft | 185 kts | 41° |
| 2026-04-27 18:41 | 43.94347 | 13.83124 | 8074 ft | 185 kts | 41° |
| 2026-04-27 18:41 | 43.95301 | 13.84344 | 8076 ft | 185 kts | 41° |
| 2026-04-27 18:42 | 43.96243 | 13.85548 | 8077 ft | 185 kts | 41° |
| 2026-04-27 18:42 | 43.96874 | 13.86356 | 8077 ft | 185 kts | 41° |
| 2026-04-27 18:42 | 43.98127 | 13.87960 | 8078 ft | 185 kts | 41° |
| 2026-04-27 18:42 | 43.99083 | 13.89185 | 8076 ft | 185 kts | 41° |
| 2026-04-27 18:43 | 44.00023 | 13.90389 | 8077 ft | 185 kts | 41° |
| 2026-04-27 18:43 | 44.00965 | 13.91596 | 8080 ft | 184 kts | 41° |
| 2026-04-27 18:43 | 44.01949 | 13.92752 | 8075 ft | 184 kts | 36° |
| 2026-04-27 18:43 | 44.02961 | 13.93825 | 8078 ft | 183 kts | 36° |
| 2026-04-27 18:44 | 44.03971 | 13.94896 | 8077 ft | 183 kts | 36° |
| 2026-04-27 18:44 | 44.04988 | 13.95975 | 8076 ft | 183 kts | 36° |
| 2026-04-27 18:44 | 44.05995 | 13.97046 | 8079 ft | 183 kts | 36° |
| 2026-04-27 18:44 | 44.07015 | 13.98131 | 8081 ft | 183 kts | 36° |
| 2026-04-27 18:45 | 44.08019 | 13.99199 | 8085 ft | 184 kts | 36° |
| 2026-04-27 18:45 | 44.09048 | 14.00295 | 8082 ft | 184 kts | 36° |
| 2026-04-27 18:45 | 44.10056 | 14.01370 | 8078 ft | 184 kts | 36° |
| 2026-04-27 18:45 | 44.11075 | 14.02457 | 8079 ft | 184 kts | 36° |
| 2026-04-27 18:46 | 44.12095 | 14.03545 | 8079 ft | 184 kts | 36° |
| 2026-04-27 18:46 | 44.13110 | 14.04628 | 8083 ft | 184 kts | 36° |
| 2026-04-27 18:46 | 44.14127 | 14.05715 | 8081 ft | 184 kts | 36° |
| 2026-04-27 18:46 | 44.15144 | 14.06801 | 8081 ft | 184 kts | 36° |
| 2026-04-27 18:47 | 44.16152 | 14.07879 | 8083 ft | 184 kts | 36° |
| 2026-04-27 18:47 | 44.17175 | 14.08973 | 8084 ft | 184 kts | 36° |
| 2026-04-27 18:47 | 44.18188 | 14.10057 | 8083 ft | 184 kts | 36° |
| 2026-04-27 18:47 | 44.19207 | 14.11148 | 8083 ft | 184 kts | 36° |
| 2026-04-27 18:48 | 44.20231 | 14.12244 | 8086 ft | 184 kts | 36° |
| 2026-04-27 18:48 | 44.21253 | 14.13339 | 8081 ft | 184 kts | 36° |
| 2026-04-27 18:48 | 44.22275 | 14.14434 | 8084 ft | 184 kts | 36° |
| 2026-04-27 18:48 | 44.23294 | 14.15526 | 8083 ft | 185 kts | 36° |
| 2026-04-27 18:49 | 44.24314 | 14.16620 | 8086 ft | 185 kts | 37° |
| 2026-04-27 18:49 | 44.25325 | 14.17706 | 8086 ft | 185 kts | 37° |
| 2026-04-27 18:49 | 44.26342 | 14.18798 | 8086 ft | 185 kts | 37° |
| 2026-04-27 18:49 | 44.27370 | 14.19903 | 8085 ft | 185 kts | 37° |
| 2026-04-27 18:50 | 44.28381 | 14.20989 | 8086 ft | 184 kts | 37° |
| 2026-04-27 18:50 | 44.29395 | 14.22079 | 8088 ft | 184 kts | 37° |
| 2026-04-27 18:50 | 44.30408 | 14.23169 | 8085 ft | 184 kts | 37° |
| 2026-04-27 18:50 | 44.31428 | 14.24266 | 8087 ft | 184 kts | 37° |
| 2026-04-27 18:51 | 44.32443 | 14.25360 | 8088 ft | 184 kts | 37° |
| 2026-04-27 18:51 | 44.33463 | 14.26459 | 8091 ft | 185 kts | 37° |
| 2026-04-27 18:51 | 44.34478 | 14.27552 | 8090 ft | 185 kts | 37° |
| 2026-04-27 18:51 | 44.35500 | 14.28653 | 8090 ft | 185 kts | 37° |
| 2026-04-27 18:52 | 44.36515 | 14.29750 | 8088 ft | 185 kts | 38° |
| 2026-04-27 18:52 | 44.37404 | 14.31074 | 8095 ft | 186 kts | 51° |
| 2026-04-27 18:52 | 44.38205 | 14.32480 | 8091 ft | 186 kts | 51° |
| 2026-04-27 18:53 | 44.40293 | 14.34211 | 8085 ft | 186 kts | 351° |
| 2026-04-27 18:53 | 44.41368 | 14.33269 | 8089 ft | 188 kts | 306° |
| 2026-04-27 18:53 | 44.41704 | 14.31529 | 8095 ft | 189 kts | 271° |
| 2026-04-27 18:53 | 44.41626 | 14.29709 | 8092 ft | 189 kts | 266° |
| 2026-04-27 18:54 | 44.41491 | 14.27875 | 8091 ft | 190 kts | 265° |
| 2026-04-27 18:54 | 44.41335 | 14.26041 | 8085 ft | 189 kts | 264° |
| 2026-04-27 18:54 | 44.41169 | 14.24207 | 8090 ft | 190 kts | 264° |
| 2026-04-27 18:54 | 44.40996 | 14.22389 | 8087 ft | 189 kts | 264° |
| 2026-04-27 18:55 | 44.40819 | 14.20576 | 8088 ft | 189 kts | 264° |
| 2026-04-27 18:55 | 44.40638 | 14.18744 | 8086 ft | 189 kts | 264° |
| 2026-04-27 18:55 | 44.40455 | 14.16914 | 8088 ft | 189 kts | 264° |
| 2026-04-27 18:55 | 44.40274 | 14.15116 | 8088 ft | 189 kts | 264° |
| 2026-04-27 18:56 | 44.40090 | 14.13289 | 8083 ft | 189 kts | 264° |
| 2026-04-27 18:56 | 44.39907 | 14.11478 | 8091 ft | 189 kts | 264° |
| 2026-04-27 18:56 | 44.39721 | 14.09646 | 8087 ft | 189 kts | 264° |
| 2026-04-27 18:56 | 44.39537 | 14.07840 | 8085 ft | 189 kts | 264° |
| 2026-04-27 18:57 | 44.39352 | 14.06019 | 8088 ft | 189 kts | 264° |
| 2026-04-27 18:57 | 44.39167 | 14.04201 | 8091 ft | 189 kts | 264° |
| 2026-04-27 18:57 | 44.38980 | 14.02378 | 8090 ft | 189 kts | 264° |
| 2026-04-27 18:57 | 44.38795 | 14.00571 | 8085 ft | 189 kts | 264° |
| 2026-04-27 18:58 | 44.38607 | 13.98746 | 8086 ft | 189 kts | 264° |
| 2026-04-27 18:58 | 44.38421 | 13.96932 | 8097 ft | 189 kts | 264° |
| 2026-04-27 18:58 | 44.38232 | 13.95095 | 8090 ft | 190 kts | 264° |
| 2026-04-27 18:58 | 44.38045 | 13.93282 | 8085 ft | 189 kts | 264° |
| 2026-04-27 18:59 | 44.37857 | 13.91460 | 8087 ft | 189 kts | 264° |
| 2026-04-27 18:59 | 44.37671 | 13.89665 | 8088 ft | 189 kts | 264° |
| 2026-04-27 18:59 | 44.37484 | 13.87859 | 8087 ft | 188 kts | 264° |
| 2026-04-27 18:59 | 44.37294 | 13.86025 | 8090 ft | 188 kts | 264° |
| 2026-04-27 19:00 | 44.37107 | 13.84226 | 8087 ft | 188 kts | 264° |
| 2026-04-27 19:00 | 44.36919 | 13.82421 | 8083 ft | 188 kts | 264° |
| 2026-04-27 19:00 | 44.36729 | 13.80600 | 8085 ft | 188 kts | 264° |
| 2026-04-27 19:00 | 44.36541 | 13.78803 | 8082 ft | 188 kts | 264° |
| 2026-04-27 19:01 | 44.36354 | 13.77005 | 8085 ft | 187 kts | 264° |
| 2026-04-27 19:01 | 44.36166 | 13.75216 | 8082 ft | 187 kts | 264° |
| 2026-04-27 19:01 | 44.35976 | 13.73404 | 8080 ft | 187 kts | 264° |
| 2026-04-27 19:01 | 44.35788 | 13.71611 | 8086 ft | 187 kts | 264° |
| 2026-04-27 19:02 | 44.35600 | 13.69823 | 8089 ft | 187 kts | 264° |
| 2026-04-27 19:02 | 44.35407 | 13.67999 | 8082 ft | 187 kts | 264° |
| 2026-04-27 19:02 | 44.35217 | 13.66195 | 8081 ft | 187 kts | 264° |
| 2026-04-27 19:02 | 44.35029 | 13.64419 | 8083 ft | 187 kts | 264° |
| 2026-04-27 19:03 | 44.34838 | 13.62611 | 8080 ft | 187 kts | 264° |
| 2026-04-27 19:03 | 44.34649 | 13.60828 | 8084 ft | 186 kts | 264° |
| 2026-04-27 19:03 | 44.34460 | 13.59056 | 8085 ft | 186 kts | 264° |
| 2026-04-27 19:03 | 44.34333 | 13.57857 | 8084 ft | 186 kts | 264° |
| 2026-04-27 19:04 | 44.34077 | 13.55452 | 8083 ft | 187 kts | 264° |
| 2026-04-27 19:04 | 44.33887 | 13.53674 | 8084 ft | 187 kts | 264° |
| 2026-04-27 19:04 | 44.33695 | 13.51876 | 8081 ft | 187 kts | 264° |
| 2026-04-27 19:04 | 44.33504 | 13.50090 | 8079 ft | 186 kts | 264° |
| 2026-04-27 19:05 | 44.33312 | 13.48301 | 8082 ft | 186 kts | 264° |
| 2026-04-27 19:05 | 44.33121 | 13.46522 | 8082 ft | 187 kts | 264° |
| 2026-04-27 19:05 | 44.32926 | 13.44709 | 8082 ft | 187 kts | 264° |
| 2026-04-27 19:05 | 44.32735 | 13.42939 | 8082 ft | 187 kts | 264° |
| 2026-04-27 19:06 | 44.32540 | 13.41126 | 8080 ft | 187 kts | 264° |
| 2026-04-27 19:06 | 44.32348 | 13.39347 | 8083 ft | 186 kts | 264° |
| 2026-04-27 19:06 | 44.32154 | 13.37552 | 8081 ft | 186 kts | 264° |
| 2026-04-27 19:06 | 44.31961 | 13.35778 | 8081 ft | 186 kts | 264° |
| 2026-04-27 19:07 | 44.31766 | 13.33979 | 8082 ft | 186 kts | 263° |
| 2026-04-27 19:07 | 44.31575 | 13.32217 | 8081 ft | 186 kts | 263° |
| 2026-04-27 19:07 | 44.31381 | 13.30432 | 8080 ft | 186 kts | 263° |
| 2026-04-27 19:07 | 44.31187 | 13.28655 | 8081 ft | 186 kts | 263° |
| 2026-04-27 19:08 | 44.30991 | 13.26858 | 8079 ft | 186 kts | 263° |
| 2026-04-27 19:08 | 44.30797 | 13.25081 | 8081 ft | 186 kts | 263° |
| 2026-04-27 19:08 | 44.30601 | 13.23297 | 8080 ft | 186 kts | 263° |
| 2026-04-27 19:08 | 44.30403 | 13.21490 | 8081 ft | 187 kts | 263° |
| 2026-04-27 19:09 | 44.30209 | 13.19728 | 8079 ft | 187 kts | 263° |
| 2026-04-27 19:09 | 44.30012 | 13.17928 | 8080 ft | 187 kts | 263° |
| 2026-04-27 19:09 | 44.29814 | 13.16134 | 8080 ft | 187 kts | 263° |
| 2026-04-27 19:09 | 44.29616 | 13.14339 | 8080 ft | 186 kts | 263° |
| 2026-04-27 19:10 | 44.29419 | 13.12553 | 8081 ft | 186 kts | 263° |
| 2026-04-27 19:10 | 44.29222 | 13.10773 | 8080 ft | 186 kts | 263° |
| 2026-04-27 19:10 | 44.29024 | 13.08988 | 8079 ft | 186 kts | 263° |
| 2026-04-27 19:10 | 44.28894 | 13.07816 | 8078 ft | 186 kts | 263° |
| 2026-04-27 19:11 | 44.28628 | 13.05425 | 8080 ft | 186 kts | 263° |
| 2026-04-27 19:11 | 44.28431 | 13.03655 | 8080 ft | 186 kts | 263° |
| 2026-04-27 19:11 | 44.28231 | 13.01854 | 8078 ft | 187 kts | 263° |
| 2026-04-27 19:11 | 44.28033 | 13.00082 | 8074 ft | 186 kts | 263° |
| 2026-04-27 19:12 | 44.27833 | 12.98289 | 8077 ft | 186 kts | 263° |
| 2026-04-27 19:12 | 44.27633 | 12.96503 | 8080 ft | 186 kts | 263° |
| 2026-04-27 19:12 | 44.27434 | 12.94727 | 8078 ft | 186 kts | 263° |
| 2026-04-27 19:12 | 44.27233 | 12.92943 | 8084 ft | 186 kts | 263° |